sensor_id;sensor_type;location;lat;lon;timestamp;pressure;altitude;pressure_sealevel;temperature;humidity
10460;BME280;54412;51.206;6.888;2023-04-26T00:02:02;101165.00;;;7.31;61.82
10460;BME280;54412;51.206;6.888;2023-04-26T00:04:30;101164.22;;;7.27;61.83
10460;BME280;54412;51.206;6.888;2023-04-26T00:06:56;101164.13;;;7.30;61.77
10460;BME280;54412;51.206;6.888;2023-04-26T00:09:22;101162.38;;;7.31;61.12
10460;BME280;54412;51.206;6.888;2023-04-26T00:11:48;101161.91;;;7.17;61.37
10460;BME280;54412;51.206;6.888;2023-04-26T00:14:14;101168.59;;;7.28;61.30
10460;BME280;54412;51.206;6.888;2023-04-26T00:16:40;101170.50;;;7.22;60.96
10460;BME280;54412;51.206;6.888;2023-04-26T00:19:05;101172.31;;;7.20;61.46
10460;BME280;54412;51.206;6.888;2023-04-26T00:21:31;101169.38;;;7.30;61.13
10460;BME280;54412;51.206;6.888;2023-04-26T00:23:57;101167.72;;;7.28;61.19
10460;BME280;54412;51.206;6.888;2023-04-26T00:26:23;101158.50;;;7.13;61.08
10460;BME280;54412;51.206;6.888;2023-04-26T00:28:49;101159.44;;;7.11;61.38
10460;BME280;54412;51.206;6.888;2023-04-26T00:31:15;101151.75;;;7.05;61.62
10460;BME280;54412;51.206;6.888;2023-04-26T00:33:41;101157.28;;;6.94;62.22
10460;BME280;54412;51.206;6.888;2023-04-26T00:36:07;101158.66;;;7.07;61.80
10460;BME280;54412;51.206;6.888;2023-04-26T00:38:33;101146.00;;;7.21;61.40
10460;BME280;54412;51.206;6.888;2023-04-26T00:40:58;101149.34;;;6.97;61.91
10460;BME280;54412;51.206;6.888;2023-04-26T00:43:24;101151.22;;;6.92;61.87
10460;BME280;54412;51.206;6.888;2023-04-26T00:45:51;101143.81;;;6.76;62.46
10460;BME280;54412;51.206;6.888;2023-04-26T00:48:17;101148.75;;;6.86;62.12
10460;BME280;54412;51.206;6.888;2023-04-26T00:50:43;101145.78;;;6.98;62.14
10460;BME280;54412;51.206;6.888;2023-04-26T00:53:09;101144.97;;;6.98;62.09
10460;BME280;54412;51.206;6.888;2023-04-26T00:55:40;101147.34;;;7.05;62.07
10460;BME280;54412;51.206;6.888;2023-04-26T00:58:06;101140.97;;;7.15;61.83
10460;BME280;54412;51.206;6.888;2023-04-26T01:00:32;101145.03;;;6.95;62.37
10460;BME280;54412;51.206;6.888;2023-04-26T01:02:58;101143.00;;;7.04;62.09
10460;BME280;54412;51.206;6.888;2023-04-26T01:05:24;101143.88;;;7.05;62.16
10460;BME280;54412;51.206;6.888;2023-04-26T01:07:50;101146.75;;;6.96;62.22
10460;BME280;54412;51.206;6.888;2023-04-26T01:10:17;101141.75;;;6.87;62.30
10460;BME280;54412;51.206;6.888;2023-04-26T01:12:43;101145.56;;;6.75;62.23
10460;BME280;54412;51.206;6.888;2023-04-26T01:15:10;101153.31;;;6.78;62.45
10460;BME280;54412;51.206;6.888;2023-04-26T01:17:36;101157.19;;;6.65;62.51
10460;BME280;54412;51.206;6.888;2023-04-26T01:20:04;101154.16;;;6.80;61.76
10460;BME280;54412;51.206;6.888;2023-04-26T01:22:33;101163.31;;;6.64;61.98
10460;BME280;54412;51.206;6.888;2023-04-26T01:25:03;101152.63;;;6.72;62.47
10460;BME280;54412;51.206;6.888;2023-04-26T01:27:29;101158.78;;;6.71;62.81
10460;BME280;54412;51.206;6.888;2023-04-26T01:29:54;101159.63;;;6.71;62.95
10460;BME280;54412;51.206;6.888;2023-04-26T01:32:20;101157.78;;;6.75;62.63
10460;BME280;54412;51.206;6.888;2023-04-26T01:34:46;101162.47;;;6.64;62.67
10460;BME280;54412;51.206;6.888;2023-04-26T01:37:11;101164.38;;;6.57;62.80
10460;BME280;54412;51.206;6.888;2023-04-26T01:39:37;101164.13;;;6.66;61.91
10460;BME280;54412;51.206;6.888;2023-04-26T01:42:03;101163.53;;;6.55;62.60
10460;BME280;54412;51.206;6.888;2023-04-26T01:44:30;101164.19;;;6.65;62.79
10460;BME280;54412;51.206;6.888;2023-04-26T01:46:55;101161.72;;;6.59;62.27
10460;BME280;54412;51.206;6.888;2023-04-26T01:49:22;101162.09;;;6.44;63.04
10460;BME280;54412;51.206;6.888;2023-04-26T01:51:47;101159.31;;;6.51;62.32
10460;BME280;54412;51.206;6.888;2023-04-26T01:54:13;101162.34;;;6.34;62.77
10460;BME280;54412;51.206;6.888;2023-04-26T01:56:39;101151.13;;;6.29;62.74
10460;BME280;54412;51.206;6.888;2023-04-26T01:59:04;101152.78;;;6.32;63.44
10460;BME280;54412;51.206;6.888;2023-04-26T02:01:30;101150.88;;;6.39;63.13
10460;BME280;54412;51.206;6.888;2023-04-26T02:03:56;101152.91;;;6.26;63.24
10460;BME280;54412;51.206;6.888;2023-04-26T02:06:21;101160.91;;;6.21;63.41
10460;BME280;54412;51.206;6.888;2023-04-26T02:08:47;101159.84;;;6.28;62.95
10460;BME280;54412;51.206;6.888;2023-04-26T02:11:13;101159.56;;;6.04;63.81
10460;BME280;54412;51.206;6.888;2023-04-26T02:13:39;101147.81;;;6.21;63.30
10460;BME280;54412;51.206;6.888;2023-04-26T02:16:05;101162.59;;;6.22;63.59
10460;BME280;54412;51.206;6.888;2023-04-26T02:18:32;101154.00;;;6.17;64.24
10460;BME280;54412;51.206;6.888;2023-04-26T02:20:58;101145.19;;;6.21;64.31
10460;BME280;54412;51.206;6.888;2023-04-26T02:23:23;101153.44;;;6.05;64.90
10460;BME280;54412;51.206;6.888;2023-04-26T02:25:49;101153.69;;;6.31;63.14
10460;BME280;54412;51.206;6.888;2023-04-26T02:28:15;101168.97;;;6.12;63.63
10460;BME280;54412;51.206;6.888;2023-04-26T02:30:41;101168.00;;;6.16;63.81
10460;BME280;54412;51.206;6.888;2023-04-26T02:33:07;101162.81;;;6.15;64.03
10460;BME280;54412;51.206;6.888;2023-04-26T02:35:34;101156.13;;;6.39;63.56
10460;BME280;54412;51.206;6.888;2023-04-26T02:38:01;101157.59;;;6.13;64.05
10460;BME280;54412;51.206;6.888;2023-04-26T02:40:27;101156.63;;;6.17;64.25
10460;BME280;54412;51.206;6.888;2023-04-26T02:42:54;101158.31;;;6.20;63.94
10460;BME280;54412;51.206;6.888;2023-04-26T02:45:20;101149.06;;;6.41;63.79
10460;BME280;54412;51.206;6.888;2023-04-26T02:47:45;101150.28;;;6.61;63.03
10460;BME280;54412;51.206;6.888;2023-04-26T02:50:11;101144.31;;;6.21;63.07
10460;BME280;54412;51.206;6.888;2023-04-26T02:52:37;101154.22;;;6.08;63.91
10460;BME280;54412;51.206;6.888;2023-04-26T02:55:03;101145.13;;;6.23;62.88
10460;BME280;54412;51.206;6.888;2023-04-26T02:57:30;101156.28;;;5.94;63.21
10460;BME280;54412;51.206;6.888;2023-04-26T02:59:57;101150.16;;;5.97;63.55
10460;BME280;54412;51.206;6.888;2023-04-26T03:02:22;101151.19;;;5.88;63.68
10460;BME280;54412;51.206;6.888;2023-04-26T03:04:48;101141.66;;;5.86;64.37
10460;BME280;54412;51.206;6.888;2023-04-26T03:07:15;101153.59;;;5.97;63.87
10460;BME280;54412;51.206;6.888;2023-04-26T03:09:41;101139.09;;;5.81;64.04
10460;BME280;54412;51.206;6.888;2023-04-26T03:12:08;101149.56;;;5.81;63.80
10460;BME280;54412;51.206;6.888;2023-04-26T03:14:34;101145.63;;;6.03;63.84
10460;BME280;54412;51.206;6.888;2023-04-26T03:17:01;101141.06;;;6.11;63.53
10460;BME280;54412;51.206;6.888;2023-04-26T03:19:27;101144.13;;;5.92;64.50
10460;BME280;54412;51.206;6.888;2023-04-26T03:21:54;101139.38;;;5.69;64.52
10460;BME280;54412;51.206;6.888;2023-04-26T03:24:20;101143.94;;;5.61;64.75
10460;BME280;54412;51.206;6.888;2023-04-26T03:26:46;101140.28;;;5.68;64.80
10460;BME280;54412;51.206;6.888;2023-04-26T03:29:11;101127.22;;;5.68;64.71
10460;BME280;54412;51.206;6.888;2023-04-26T03:31:37;101133.88;;;5.81;64.63
10460;BME280;54412;51.206;6.888;2023-04-26T03:34:04;101127.00;;;5.77;64.50
10460;BME280;54412;51.206;6.888;2023-04-26T03:36:29;101127.84;;;5.78;64.35
10460;BME280;54412;51.206;6.888;2023-04-26T03:38:55;101130.81;;;5.63;64.43
10460;BME280;54412;51.206;6.888;2023-04-26T03:41:22;101125.66;;;5.58;64.60
10460;BME280;54412;51.206;6.888;2023-04-26T03:43:48;101135.03;;;5.70;64.64
10460;BME280;54412;51.206;6.888;2023-04-26T03:46:13;101129.63;;;5.76;64.10
10460;BME280;54412;51.206;6.888;2023-04-26T03:48:39;101122.94;;;5.64;63.80
10460;BME280;54412;51.206;6.888;2023-04-26T03:51:05;101130.91;;;5.58;63.99
10460;BME280;54412;51.206;6.888;2023-04-26T03:53:31;101137.31;;;5.44;64.52
10460;BME280;54412;51.206;6.888;2023-04-26T03:55:57;101134.66;;;5.45;64.67
10460;BME280;54412;51.206;6.888;2023-04-26T03:58:24;101141.53;;;5.51;64.59
10460;BME280;54412;51.206;6.888;2023-04-26T04:00:50;101134.47;;;5.56;64.82
10460;BME280;54412;51.206;6.888;2023-04-26T04:03:16;101130.50;;;5.76;64.70
10460;BME280;54412;51.206;6.888;2023-04-26T04:05:42;101129.28;;;5.53;65.29
10460;BME280;54412;51.206;6.888;2023-04-26T04:08:08;101130.97;;;5.55;64.83
10460;BME280;54412;51.206;6.888;2023-04-26T04:10:34;101140.06;;;5.39;65.40
10460;BME280;54412;51.206;6.888;2023-04-26T04:13:01;101142.44;;;5.50;65.46
10460;BME280;54412;51.206;6.888;2023-04-26T04:15:26;101139.31;;;5.74;64.32
10460;BME280;54412;51.206;6.888;2023-04-26T04:17:52;101137.53;;;5.74;64.47
10460;BME280;54412;51.206;6.888;2023-04-26T04:20:18;101136.97;;;5.60;64.88
10460;BME280;54412;51.206;6.888;2023-04-26T04:22:44;101149.44;;;5.48;64.58
10460;BME280;54412;51.206;6.888;2023-04-26T04:25:10;101145.22;;;5.42;65.04
10460;BME280;54412;51.206;6.888;2023-04-26T04:27:37;101145.63;;;5.64;64.28
10460;BME280;54412;51.206;6.888;2023-04-26T04:30:04;101151.84;;;5.58;64.57
10460;BME280;54412;51.206;6.888;2023-04-26T04:32:32;101157.50;;;5.39;65.29
10460;BME280;54412;51.206;6.888;2023-04-26T04:34:58;101162.38;;;5.55;64.89
10460;BME280;54412;51.206;6.888;2023-04-26T04:37:24;101162.03;;;6.11;64.42
10460;BME280;54412;51.206;6.888;2023-04-26T04:39:52;101161.16;;;6.46;63.41
10460;BME280;54412;51.206;6.888;2023-04-26T04:42:18;101155.03;;;6.47;63.00
10460;BME280;54412;51.206;6.888;2023-04-26T04:44:44;101154.34;;;6.39;63.56
10460;BME280;54412;51.206;6.888;2023-04-26T04:47:10;101148.72;;;6.20;63.85
10460;BME280;54412;51.206;6.888;2023-04-26T04:49:37;101157.00;;;6.38;63.34
10460;BME280;54412;51.206;6.888;2023-04-26T04:52:04;101163.56;;;6.20;63.09
10460;BME280;54412;51.206;6.888;2023-04-26T04:54:29;101156.47;;;5.87;63.95
10460;BME280;54412;51.206;6.888;2023-04-26T04:56:55;101164.03;;;6.00;64.34
10460;BME280;54412;51.206;6.888;2023-04-26T04:59:22;101164.72;;;6.07;64.35
10460;BME280;54412;51.206;6.888;2023-04-26T05:01:49;101166.25;;;5.77;64.86
10460;BME280;54412;51.206;6.888;2023-04-26T05:04:15;101163.66;;;5.77;64.96
10460;BME280;54412;51.206;6.888;2023-04-26T05:06:41;101173.53;;;5.63;65.48
10460;BME280;54412;51.206;6.888;2023-04-26T05:09:08;101171.47;;;5.79;65.63
10460;BME280;54412;51.206;6.888;2023-04-26T05:11:34;101176.56;;;5.85;65.40
10460;BME280;54412;51.206;6.888;2023-04-26T05:14:00;101184.34;;;5.89;65.71
10460;BME280;54412;51.206;6.888;2023-04-26T05:16:26;101179.41;;;5.74;65.62
10460;BME280;54412;51.206;6.888;2023-04-26T05:18:52;101183.50;;;5.87;65.77
10460;BME280;54412;51.206;6.888;2023-04-26T05:21:18;101192.13;;;5.92;64.93
10460;BME280;54412;51.206;6.888;2023-04-26T05:23:44;101195.06;;;5.76;65.64
10460;BME280;54412;51.206;6.888;2023-04-26T05:26:14;101196.69;;;5.84;65.67
10460;BME280;54412;51.206;6.888;2023-04-26T05:28:40;101196.47;;;5.92;65.66
10460;BME280;54412;51.206;6.888;2023-04-26T05:31:07;101194.94;;;5.83;65.76
10460;BME280;54412;51.206;6.888;2023-04-26T05:33:33;101196.59;;;5.87;65.91
10460;BME280;54412;51.206;6.888;2023-04-26T05:35:58;101197.41;;;5.91;65.42
10460;BME280;54412;51.206;6.888;2023-04-26T05:38:24;101198.97;;;5.98;65.52
10460;BME280;54412;51.206;6.888;2023-04-26T05:40:50;101195.00;;;6.20;64.73
10460;BME280;54412;51.206;6.888;2023-04-26T05:43:16;101203.97;;;6.08;65.04
10460;BME280;54412;51.206;6.888;2023-04-26T05:45:52;101197.94;;;6.05;66.25
10460;BME280;54412;51.206;6.888;2023-04-26T05:48:23;101208.63;;;6.34;65.04
10460;BME280;54412;51.206;6.888;2023-04-26T05:50:50;101206.00;;;6.34;65.35
10460;BME280;54412;51.206;6.888;2023-04-26T05:53:17;101207.25;;;6.55;64.21
10460;BME280;54412;51.206;6.888;2023-04-26T05:55:44;101206.66;;;6.44;64.39
10460;BME280;54412;51.206;6.888;2023-04-26T05:58:10;101204.00;;;6.45;64.80
10460;BME280;54412;51.206;6.888;2023-04-26T06:00:37;101214.13;;;6.59;64.99
10460;BME280;54412;51.206;6.888;2023-04-26T06:03:03;101215.41;;;6.78;63.52
10460;BME280;54412;51.206;6.888;2023-04-26T06:05:30;101207.00;;;6.65;64.77
10460;BME280;54412;51.206;6.888;2023-04-26T06:07:57;101213.25;;;6.60;65.31
10460;BME280;54412;51.206;6.888;2023-04-26T06:10:23;101221.47;;;6.80;64.66
10460;BME280;54412;51.206;6.888;2023-04-26T06:12:49;101219.03;;;6.72;65.06
10460;BME280;54412;51.206;6.888;2023-04-26T06:15:15;101213.97;;;6.98;64.65
10460;BME280;54412;51.206;6.888;2023-04-26T06:17:41;101221.81;;;7.00;64.50
10460;BME280;54412;51.206;6.888;2023-04-26T06:20:07;101216.41;;;7.06;65.06
10460;BME280;54412;51.206;6.888;2023-04-26T06:22:37;101219.84;;;7.08;65.09
10460;BME280;54412;51.206;6.888;2023-04-26T06:25:06;101219.13;;;7.35;64.49
10460;BME280;54412;51.206;6.888;2023-04-26T06:27:31;101232.88;;;7.43;64.50
10460;BME280;54412;51.206;6.888;2023-04-26T06:29:57;101243.16;;;7.51;64.27
10460;BME280;54412;51.206;6.888;2023-04-26T06:32:23;101239.59;;;7.53;64.36
10460;BME280;54412;51.206;6.888;2023-04-26T06:34:48;101234.00;;;7.65;65.19
10460;BME280;54412;51.206;6.888;2023-04-26T06:37:14;101234.25;;;7.87;64.88
10460;BME280;54412;51.206;6.888;2023-04-26T06:39:40;101237.53;;;7.93;63.32
10460;BME280;54412;51.206;6.888;2023-04-26T06:42:06;101241.19;;;7.89;63.46
10460;BME280;54412;51.206;6.888;2023-04-26T06:44:32;101235.84;;;7.92;64.00
10460;BME280;54412;51.206;6.888;2023-04-26T06:46:58;101238.19;;;8.01;63.21
10460;BME280;54412;51.206;6.888;2023-04-26T06:49:24;101229.31;;;8.05;63.47
10460;BME280;54412;51.206;6.888;2023-04-26T06:51:51;101233.66;;;8.35;62.89
10460;BME280;54412;51.206;6.888;2023-04-26T06:54:18;101228.50;;;8.32;62.12
10460;BME280;54412;51.206;6.888;2023-04-26T06:56:44;101227.69;;;8.30;62.89
10460;BME280;54412;51.206;6.888;2023-04-26T06:59:10;101226.72;;;8.33;62.50
10460;BME280;54412;51.206;6.888;2023-04-26T07:01:35;101230.91;;;8.38;62.42
10460;BME280;54412;51.206;6.888;2023-04-26T07:04:02;101224.84;;;8.64;61.92
10460;BME280;54412;51.206;6.888;2023-04-26T07:06:29;101229.50;;;8.82;61.20
10460;BME280;54412;51.206;6.888;2023-04-26T07:08:59;101230.44;;;9.06;60.87
10460;BME280;54412;51.206;6.888;2023-04-26T07:11:27;101230.38;;;9.07;60.60
10460;BME280;54412;51.206;6.888;2023-04-26T07:13:53;101227.88;;;9.29;60.16
10460;BME280;54412;51.206;6.888;2023-04-26T07:16:20;101228.03;;;9.49;59.43
10460;BME280;54412;51.206;6.888;2023-04-26T07:18:45;101236.38;;;9.37;58.45
10460;BME280;54412;51.206;6.888;2023-04-26T07:21:13;101233.13;;;9.29;59.39
10460;BME280;54412;51.206;6.888;2023-04-26T07:23:39;101235.78;;;9.29;58.89
10460;BME280;54412;51.206;6.888;2023-04-26T07:26:05;101231.25;;;9.32;58.54
10460;BME280;54412;51.206;6.888;2023-04-26T07:28:31;101236.03;;;9.21;59.50
10460;BME280;54412;51.206;6.888;2023-04-26T07:31:00;101230.72;;;9.47;58.75
10460;BME280;54412;51.206;6.888;2023-04-26T07:33:26;101225.50;;;9.46;59.49
10460;BME280;54412;51.206;6.888;2023-04-26T07:35:58;101225.13;;;9.57;59.41
10460;BME280;54412;51.206;6.888;2023-04-26T07:38:26;101227.97;;;9.97;58.31
10460;BME280;54412;51.206;6.888;2023-04-26T07:40:51;101229.19;;;9.88;57.92
10460;BME280;54412;51.206;6.888;2023-04-26T07:43:19;101216.94;;;10.10;56.69
10460;BME280;54412;51.206;6.888;2023-04-26T07:45:45;101224.97;;;10.07;55.76
10460;BME280;54412;51.206;6.888;2023-04-26T07:48:11;101219.84;;;10.03;55.59
10460;BME280;54412;51.206;6.888;2023-04-26T07:50:37;101226.28;;;9.96;55.58
10460;BME280;54412;51.206;6.888;2023-04-26T07:53:03;101227.22;;;10.18;54.69
10460;BME280;54412;51.206;6.888;2023-04-26T07:55:29;101234.13;;;10.20;54.55
10460;BME280;54412;51.206;6.888;2023-04-26T07:57:54;101221.63;;;10.47;54.76
10460;BME280;54412;51.206;6.888;2023-04-26T08:00:20;101221.53;;;10.92;54.75
10460;BME280;54412;51.206;6.888;2023-04-26T08:02:49;101225.56;;;10.59;53.01
10460;BME280;54412;51.206;6.888;2023-04-26T08:05:15;101224.63;;;10.38;53.45
10460;BME280;54412;51.206;6.888;2023-04-26T08:07:42;101219.25;;;10.63;52.58
10460;BME280;54412;51.206;6.888;2023-04-26T08:10:09;101226.88;;;10.25;52.34
10460;BME280;54412;51.206;6.888;2023-04-26T08:12:36;101223.28;;;10.05;52.65
10460;BME280;54412;51.206;6.888;2023-04-26T08:15:03;101223.63;;;9.96;52.73
10460;BME280;54412;51.206;6.888;2023-04-26T08:17:30;101219.84;;;10.03;52.77
10460;BME280;54412;51.206;6.888;2023-04-26T08:19:57;101214.84;;;10.18;52.41
10460;BME280;54412;51.206;6.888;2023-04-26T08:22:23;101224.09;;;10.07;52.48
10460;BME280;54412;51.206;6.888;2023-04-26T08:24:51;101222.34;;;10.06;52.11
10460;BME280;54412;51.206;6.888;2023-04-26T08:27:16;101228.69;;;10.25;51.39
10460;BME280;54412;51.206;6.888;2023-04-26T08:29:43;101237.44;;;9.79;52.07
10460;BME280;54412;51.206;6.888;2023-04-26T08:32:09;101232.03;;;9.82;52.97
10460;BME280;54412;51.206;6.888;2023-04-26T08:34:35;101230.56;;;9.98;51.54
10460;BME280;54412;51.206;6.888;2023-04-26T08:37:00;101231.19;;;9.82;52.40
10460;BME280;54412;51.206;6.888;2023-04-26T08:39:26;101228.97;;;9.71;50.78
10460;BME280;54412;51.206;6.888;2023-04-26T08:41:53;101235.19;;;9.92;50.37
10460;BME280;54412;51.206;6.888;2023-04-26T08:44:24;101235.53;;;9.83;51.25
10460;BME280;54412;51.206;6.888;2023-04-26T08:47:13;101247.75;;;9.85;49.47
10460;BME280;54412;51.206;6.888;2023-04-26T08:49:44;101246.00;;;9.86;49.41
10460;BME280;54412;51.206;6.888;2023-04-26T08:52:13;101240.00;;;10.04;49.11
10460;BME280;54412;51.206;6.888;2023-04-26T08:54:41;101239.56;;;9.93;50.56
10460;BME280;54412;51.206;6.888;2023-04-26T08:57:08;101231.94;;;10.08;51.43
10460;BME280;54412;51.206;6.888;2023-04-26T08:59:36;101229.72;;;10.42;49.98
10460;BME280;54412;51.206;6.888;2023-04-26T09:02:05;101232.72;;;10.33;49.59
10460;BME280;54412;51.206;6.888;2023-04-26T09:04:31;101236.03;;;10.38;49.47
10460;BME280;54412;51.206;6.888;2023-04-26T09:07:03;101230.44;;;10.89;49.32
10460;BME280;54412;51.206;6.888;2023-04-26T09:09:40;101228.19;;;11.40;49.01
10460;BME280;54412;51.206;6.888;2023-04-26T09:12:07;101232.16;;;11.50;48.67
10460;BME280;54412;51.206;6.888;2023-04-26T09:14:33;101231.75;;;11.39;48.37
10460;BME280;54412;51.206;6.888;2023-04-26T09:16:59;101226.00;;;11.50;48.09
10460;BME280;54412;51.206;6.888;2023-04-26T09:19:51;101232.16;;;11.10;47.26
10460;BME280;54412;51.206;6.888;2023-04-26T09:22:48;101228.22;;;11.20;48.13
10460;BME280;54412;51.206;6.888;2023-04-26T09:25:18;101233.75;;;11.14;48.31
10460;BME280;54412;51.206;6.888;2023-04-26T09:27:45;101228.72;;;11.28;47.37
10460;BME280;54412;51.206;6.888;2023-04-26T09:30:16;101231.94;;;11.55;45.23
10460;BME280;54412;51.206;6.888;2023-04-26T09:32:58;101231.66;;;11.81;44.46
10460;BME280;54412;51.206;6.888;2023-04-26T09:35:33;101231.94;;;11.75;44.79
10460;BME280;54412;51.206;6.888;2023-04-26T09:38:11;101213.41;;;12.14;44.44
10460;BME280;54412;51.206;6.888;2023-04-26T09:40:49;101218.56;;;12.52;43.23
10460;BME280;54412;51.206;6.888;2023-04-26T09:43:20;101209.66;;;12.89;42.55
10460;BME280;54412;51.206;6.888;2023-04-26T09:45:52;101217.59;;;11.60;43.69
10460;BME280;54412;51.206;6.888;2023-04-26T09:48:31;101204.81;;;11.90;44.84
10460;BME280;54412;51.206;6.888;2023-04-26T09:51:09;101209.16;;;12.28;43.17
10460;BME280;54412;51.206;6.888;2023-04-26T09:53:45;101211.31;;;11.63;42.86
10460;BME280;54412;51.206;6.888;2023-04-26T09:56:16;101206.53;;;11.32;44.41
10460;BME280;54412;51.206;6.888;2023-04-26T10:01:18;101207.50;;;11.50;43.61
10460;BME280;54412;51.206;6.888;2023-04-26T10:03:45;101210.22;;;11.69;43.14
10460;BME280;54412;51.206;6.888;2023-04-26T10:06:14;101209.19;;;11.32;43.12
10460;BME280;54412;51.206;6.888;2023-04-26T10:08:40;101199.91;;;11.42;43.14
10460;BME280;54412;51.206;6.888;2023-04-26T10:11:07;101198.72;;;11.70;43.63
10460;BME280;54412;51.206;6.888;2023-04-26T10:13:35;101194.25;;;11.90;42.54
10460;BME280;54412;51.206;6.888;2023-04-26T10:16:01;101201.13;;;11.94;42.16
10460;BME280;54412;51.206;6.888;2023-04-26T10:18:28;101203.66;;;11.77;41.75
10460;BME280;54412;51.206;6.888;2023-04-26T10:21:00;101194.44;;;11.67;43.51
10460;BME280;54412;51.206;6.888;2023-04-26T10:23:28;101197.56;;;11.56;43.17
10460;BME280;54412;51.206;6.888;2023-04-26T10:25:54;101195.81;;;10.97;42.53
10460;BME280;54412;51.206;6.888;2023-04-26T10:31:04;101200.16;;;11.18;42.40
10460;BME280;54412;51.206;6.888;2023-04-26T10:33:32;101195.91;;;10.74;42.21
10460;BME280;54412;51.206;6.888;2023-04-26T10:36:13;101193.28;;;10.94;42.89
10460;BME280;54412;51.206;6.888;2023-04-26T10:38:52;101190.94;;;11.08;43.51
10460;BME280;54412;51.206;6.888;2023-04-26T10:41:35;101187.81;;;11.38;42.70
10460;BME280;54412;51.206;6.888;2023-04-26T10:44:40;101191.97;;;11.44;41.99
10460;BME280;54412;51.206;6.888;2023-04-26T10:49:48;101181.38;;;11.83;41.88
10460;BME280;54412;51.206;6.888;2023-04-26T10:52:19;101176.94;;;12.02;41.85
10460;BME280;54412;51.206;6.888;2023-04-26T10:54:58;101183.44;;;12.13;41.58
10460;BME280;54412;51.206;6.888;2023-04-26T10:57:51;101183.13;;;12.38;40.80
10460;BME280;54412;51.206;6.888;2023-04-26T11:00:19;101185.38;;;12.28;40.78
10460;BME280;54412;51.206;6.888;2023-04-26T11:03:04;101178.22;;;11.93;40.52
10460;BME280;54412;51.206;6.888;2023-04-26T11:05:53;101176.75;;;11.69;42.07
10460;BME280;54412;51.206;6.888;2023-04-26T11:08:24;101184.69;;;11.49;42.22
10460;BME280;54412;51.206;6.888;2023-04-26T11:11:10;101174.59;;;11.38;43.30
10460;BME280;54412;51.206;6.888;2023-04-26T11:13:42;101183.25;;;11.60;43.79
10460;BME280;54412;51.206;6.888;2023-04-26T11:16:13;101179.72;;;11.41;44.00
10460;BME280;54412;51.206;6.888;2023-04-26T11:18:46;101172.56;;;11.64;44.12
10460;BME280;54412;51.206;6.888;2023-04-26T11:21:12;101170.81;;;11.44;44.36
10460;BME280;54412;51.206;6.888;2023-04-26T11:23:42;101168.88;;;11.68;44.10
10460;BME280;54412;51.206;6.888;2023-04-26T11:26:17;101177.03;;;11.43;43.12
10460;BME280;54412;51.206;6.888;2023-04-26T11:28:42;101171.41;;;11.30;43.32
10460;BME280;54412;51.206;6.888;2023-04-26T11:31:09;101165.88;;;11.55;43.86
10460;BME280;54412;51.206;6.888;2023-04-26T11:33:36;101175.59;;;11.75;42.64
10460;BME280;54412;51.206;6.888;2023-04-26T11:36:02;101172.19;;;11.52;43.01
10460;BME280;54412;51.206;6.888;2023-04-26T11:38:28;101169.16;;;11.41;43.14
10460;BME280;54412;51.206;6.888;2023-04-26T11:41:00;101167.41;;;11.60;42.39
10460;BME280;54412;51.206;6.888;2023-04-26T11:43:37;101157.03;;;11.76;42.67
10460;BME280;54412;51.206;6.888;2023-04-26T11:46:05;101161.84;;;12.04;41.46
10460;BME280;54412;51.206;6.888;2023-04-26T11:48:34;101157.81;;;12.32;41.84
10460;BME280;54412;51.206;6.888;2023-04-26T11:51:03;101156.03;;;13.03;39.36
10460;BME280;54412;51.206;6.888;2023-04-26T11:53:42;101144.34;;;13.07;40.06
10460;BME280;54412;51.206;6.888;2023-04-26T11:56:19;101144.44;;;13.71;39.61
10460;BME280;54412;51.206;6.888;2023-04-26T11:58:47;101138.19;;;14.03;38.75
10460;BME280;54412;51.206;6.888;2023-04-26T12:01:20;101149.22;;;13.95;38.22
10460;BME280;54412;51.206;6.888;2023-04-26T12:03:56;101147.34;;;14.28;36.61
10460;BME280;54412;51.206;6.888;2023-04-26T12:06:30;101148.13;;;14.30;35.83
10460;BME280;54412;51.206;6.888;2023-04-26T12:09:01;101148.69;;;14.81;35.66
10460;BME280;54412;51.206;6.888;2023-04-26T12:11:29;101159.28;;;14.66;35.61
10460;BME280;54412;51.206;6.888;2023-04-26T12:13:57;101154.03;;;14.04;36.18
10460;BME280;54412;51.206;6.888;2023-04-26T12:16:24;101161.84;;;13.75;36.23
10460;BME280;54412;51.206;6.888;2023-04-26T12:18:50;101155.09;;;13.04;36.38
10460;BME280;54412;51.206;6.888;2023-04-26T12:21:17;101163.19;;;12.84;36.29
10460;BME280;54412;51.206;6.888;2023-04-26T12:23:43;101164.09;;;12.83;37.62
10460;BME280;54412;51.206;6.888;2023-04-26T12:26:13;101159.59;;;13.19;36.54
10460;BME280;54412;51.206;6.888;2023-04-26T12:28:39;101168.66;;;13.15;37.01
10460;BME280;54412;51.206;6.888;2023-04-26T12:31:05;101163.72;;;13.24;36.75
10460;BME280;54412;51.206;6.888;2023-04-26T12:33:32;101160.97;;;13.43;36.61
10460;BME280;54412;51.206;6.888;2023-04-26T12:36:10;101157.03;;;13.50;36.92
10460;BME280;54412;51.206;6.888;2023-04-26T12:38:37;101148.00;;;13.54;36.81
10460;BME280;54412;51.206;6.888;2023-04-26T12:41:04;101152.09;;;13.59;41.38
10460;BME280;54412;51.206;6.888;2023-04-26T12:43:30;101141.44;;;13.44;41.74
10460;BME280;54412;51.206;6.888;2023-04-26T12:45:55;101150.94;;;13.15;39.66
10460;BME280;54412;51.206;6.888;2023-04-26T12:48:21;101153.94;;;13.42;38.29
10460;BME280;54412;51.206;6.888;2023-04-26T12:50:49;101152.53;;;13.02;39.91
10460;BME280;54412;51.206;6.888;2023-04-26T12:53:15;101152.03;;;12.94;38.26
10460;BME280;54412;51.206;6.888;2023-04-26T12:55:42;101153.69;;;12.97;37.84
10460;BME280;54412;51.206;6.888;2023-04-26T12:58:08;101151.94;;;12.96;39.58
10460;BME280;54412;51.206;6.888;2023-04-26T13:00:34;101145.38;;;13.37;37.79
10460;BME280;54412;51.206;6.888;2023-04-26T13:03:00;101154.88;;;13.41;37.48
10460;BME280;54412;51.206;6.888;2023-04-26T13:05:25;101145.13;;;13.74;36.15
10460;BME280;54412;51.206;6.888;2023-04-26T13:07:51;101147.09;;;13.71;36.17
10460;BME280;54412;51.206;6.888;2023-04-26T13:10:17;101149.72;;;14.02;35.30